Time;durP1;ratioP1;P1;durP2;ratioP2;P2;SDS_P1;SDS_P2;PMS_P1;PMS_P2;Temp;Humidity;BMP_temperature;BMP_pressure;BME280_temperature;BME280_humidity;BME280_pressure;Samples;Min_cycle;Max_cycle;Signal;HPM_P1;HPM_P2
2022/07/14 00:02:09;;;;;;;361.10;215.20;;;;;;;;;;5010279;28;20282;-52
2022/07/14 00:04:35;;;;;;;401.83;228.82;;;;;;;;;;5011312;28;20270;-52
2022/07/14 00:07:02;;;;;;;374.17;224.38;;;;;;;;;;5011541;28;20929;-52
2022/07/14 00:09:27;;;;;;;376.20;226.23;;;;;;;;;;5016836;28;20272;-52
2022/07/14 00:11:53;;;;;;;360.63;220.20;;;;;;;;;;5013170;28;20220;-52
2022/07/14 00:14:19;;;;;;;413.65;240.45;;;;;;;;;;5009708;28;20227;-52
2022/07/14 00:16:45;;;;;;;400.05;235.30;;;;;;;;;;5012510;28;20578;-52
2022/07/14 00:19:11;;;;;;;402.58;226.93;;;;;;;;;;5010350;28;20216;-52
2022/07/14 00:21:37;;;;;;;373.35;216.38;;;;;;;;;;5015167;28;20207;-52
2022/07/14 00:24:04;;;;;;;370.05;218.27;;;;;;;;;;5011167;28;20188;-52
2022/07/14 00:26:30;;;;;;;372.30;219.63;;;;;;;;;;5009440;28;20216;-52
2022/07/14 00:28:56;;;;;;;383.80;218.93;;;;;;;;;;5010675;28;20220;-52
2022/07/14 00:31:22;;;;;;;421.10;227.15;;;;;;;;;;5010225;28;20216;-52
2022/07/14 00:33:48;;;;;;;353.77;205.63;;;;;;;;;;5009790;28;20209;-52
2022/07/14 00:36:14;;;;;;;418.10;235.85;;;;;;;;;;5010688;28;20240;-52
2022/07/14 00:38:40;;;;;;;420.25;243.15;;;;;;;;;;5006522;28;20217;-52
2022/07/14 00:41:06;;;;;;;395.85;225.68;;;;;;;;;;5008605;28;20362;-52
2022/07/14 00:43:31;;;;;;;434.38;231.68;;;;;;;;;;5001933;28;20240;-52
2022/07/14 00:45:57;;;;;;;410.70;225.50;;;;;;;;;;5003584;28;20217;-52
2022/07/14 00:48:25;;;;;;;448.48;231.98;;;;;;;;;;5004631;28;20215;-52
2022/07/14 00:50:51;;;;;;;411.80;228.45;;;;;;;;;;5006233;28;20335;-52
2022/07/14 00:53:18;;;;;;;407.45;226.32;;;;;;;;;;5013392;28;20235;-52
2022/07/14 00:55:44;;;;;;;467.80;239.90;;;;;;;;;;5007264;28;20213;-52
2022/07/14 00:58:10;;;;;;;355.30;209.02;;;;;;;;;;5007905;28;20282;-52
2022/07/14 01:00:36;;;;;;;381.23;215.32;;;;;;;;;;5007312;28;20187;-52
2022/07/14 01:03:02;;;;;;;366.33;212.27;;;;;;;;;;5006461;28;20177;-52
2022/07/14 01:05:28;;;;;;;424.85;218.20;;;;;;;;;;5003150;28;20224;-52
2022/07/14 01:07:54;;;;;;;378.02;216.88;;;;;;;;;;5003506;28;20249;-52
2022/07/14 01:10:21;;;;;;;412.27;223.52;;;;;;;;;;5012138;28;20244;-52
2022/07/14 01:12:47;;;;;;;406.42;217.10;;;;;;;;;;5006811;28;20670;-52
2022/07/14 01:15:18;;;;;;;420.77;223.35;;;;;;;;;;5004887;28;20250;-52
2022/07/14 01:17:44;;;;;;;391.85;206.05;;;;;;;;;;5010480;28;20221;-52
2022/07/14 01:20:10;;;;;;;455.33;239.75;;;;;;;;;;5003338;28;20298;-52
2022/07/14 01:22:36;;;;;;;385.33;215.73;;;;;;;;;;5006935;28;20227;-53
2022/07/14 01:25:06;;;;;;;383.80;216.43;;;;;;;;;;5011769;28;20605;-52
2022/07/14 01:27:32;;;;;;;406.30;225.95;;;;;;;;;;5006841;28;20546;-52
2022/07/14 01:29:58;;;;;;;404.92;219.05;;;;;;;;;;5013205;28;20212;-52
2022/07/14 01:32:24;;;;;;;433.63;221.38;;;;;;;;;;5003080;28;20212;-52
2022/07/14 01:34:50;;;;;;;385.80;209.20;;;;;;;;;;5007444;28;20220;-52
2022/07/14 01:37:16;;;;;;;427.20;233.73;;;;;;;;;;4999575;28;20309;-52
2022/07/14 01:39:42;;;;;;;447.15;242.05;;;;;;;;;;5000277;28;20641;-52
2022/07/14 01:42:08;;;;;;;414.23;223.25;;;;;;;;;;5014575;28;20624;-52
2022/07/14 01:44:34;;;;;;;393.45;216.43;;;;;;;;;;5007712;28;20224;-52
2022/07/14 01:47:00;;;;;;;458.67;234.67;;;;;;;;;;5001778;28;20219;-52
2022/07/14 01:49:26;;;;;;;412.85;213.75;;;;;;;;;;5010159;28;20224;-52
2022/07/14 01:51:52;;;;;;;415.55;218.60;;;;;;;;;;5006525;28;20226;-52
2022/07/14 01:54:18;;;;;;;392.17;210.25;;;;;;;;;;5005579;28;20188;-52
2022/07/14 01:56:44;;;;;;;428.65;231.98;;;;;;;;;;5001978;28;20238;-52
2022/07/14 01:59:10;;;;;;;420.65;220.07;;;;;;;;;;4998476;28;20228;-52
2022/07/14 02:01:40;;;;;;;365.37;192.07;;;;;;;;;;5005171;28;20221;-52
2022/07/14 02:04:06;;;;;;;428.50;220.30;;;;;;;;;;5005017;28;20246;-52
2022/07/14 02:06:32;;;;;;;476.40;254.17;;;;;;;;;;5005457;28;20207;-52
2022/07/14 02:08:59;;;;;;;389.87;217.50;;;;;;;;;;5009846;28;20670;-52
2022/07/14 02:14:10;;;;;;;376.80;210.00;;;;;;;;;;5008744;28;20219;-52
2022/07/14 02:16:36;;;;;;;446.93;237.20;;;;;;;;;;4999801;28;20216;-52
2022/07/14 02:19:03;;;;;;;431.30;226.77;;;;;;;;;;5000958;28;20317;-52
2022/07/14 02:21:29;;;;;;;410.20;214.43;;;;;;;;;;5010498;28;20193;-52
2022/07/14 02:23:56;;;;;;;394.27;212.57;;;;;;;;;;5006811;28;20197;-52
2022/07/14 02:26:23;;;;;;;398.00;216.60;;;;;;;;;;5008111;28;20220;-52
2022/07/14 02:28:49;;;;;;;441.83;226.03;;;;;;;;;;4999840;28;20240;-52
2022/07/14 02:31:15;;;;;;;393.60;204.57;;;;;;;;;;5007358;28;20305;-52
2022/07/14 02:33:41;;;;;;;428.00;222.40;;;;;;;;;;5006043;28;20220;-52
2022/07/14 02:36:07;;;;;;;432.77;227.50;;;;;;;;;;4998942;28;20569;-52
2022/07/14 02:38:34;;;;;;;399.03;215.00;;;;;;;;;;5006073;28;20537;-52
2022/07/14 02:41:00;;;;;;;414.30;210.53;;;;;;;;;;5004830;28;20215;-52
2022/07/14 02:43:26;;;;;;;396.17;197.93;;;;;;;;;;5007822;28;20209;-52
2022/07/14 02:45:52;;;;;;;454.27;219.33;;;;;;;;;;4998782;28;20693;-52
2022/07/14 02:48:18;;;;;;;450.73;234.27;;;;;;;;;;5003747;28;20200;-52
2022/07/14 02:50:45;;;;;;;454.13;237.83;;;;;;;;;;5007188;28;20212;-52
2022/07/14 02:53:11;;;;;;;415.85;213.23;;;;;;;;;;4999792;28;20217;-52
2022/07/14 02:55:37;;;;;;;446.10;226.00;;;;;;;;;;5004739;28;20296;-52
2022/07/14 02:58:06;;;;;;;416.17;212.77;;;;;;;;;;5004613;28;20282;-52
2022/07/14 03:00:33;;;;;;;368.27;193.07;;;;;;;;;;5011190;28;20665;-52
2022/07/14 03:03:00;;;;;;;392.43;202.93;;;;;;;;;;5006676;28;20838;-52
2022/07/14 03:05:26;;;;;;;457.87;224.87;;;;;;;;;;5007314;28;20216;-52
2022/07/14 03:07:52;;;;;;;390.00;208.77;;;;;;;;;;5012076;28;20224;-52
2022/07/14 03:10:18;;;;;;;454.50;236.27;;;;;;;;;;5002018;28;20636;-52
2022/07/14 03:12:44;;;;;;;447.27;226.67;;;;;;;;;;5004453;28;20306;-51
2022/07/14 03:15:11;;;;;;;418.60;215.17;;;;;;;;;;5004383;28;20195;-52
2022/07/14 03:17:40;;;;;;;358.07;186.33;;;;;;;;;;5010210;28;20224;-51
2022/07/14 03:20:07;;;;;;;400.00;212.83;;;;;;;;;;5002292;28;20232;-52
2022/07/14 03:22:33;;;;;;;366.27;192.67;;;;;;;;;;5004873;28;20244;-52
2022/07/14 03:24:59;;;;;;;441.50;226.47;;;;;;;;;;5006741;28;20593;-52
2022/07/14 03:27:25;;;;;;;460.67;230.50;;;;;;;;;;5005693;28;20216;-52
2022/07/14 03:29:51;;;;;;;407.33;212.43;;;;;;;;;;5002668;28;20216;-52
2022/07/14 03:32:17;;;;;;;372.83;194.90;;;;;;;;;;5002109;28;20661;-52
2022/07/14 03:34:43;;;;;;;361.73;191.20;;;;;;;;;;5013205;28;20219;-52
2022/07/14 03:37:09;;;;;;;391.70;204.10;;;;;;;;;;5009880;28;20227;-52
2022/07/14 03:39:36;;;;;;;420.70;216.07;;;;;;;;;;5010837;28;20644;-52
2022/07/14 03:42:02;;;;;;;436.70;222.87;;;;;;;;;;5012375;28;20235;-51
2022/07/14 03:44:28;;;;;;;397.67;200.30;;;;;;;;;;5006153;28;20320;-52
2022/07/14 03:46:54;;;;;;;392.87;209.67;;;;;;;;;;5003378;28;20225;-52
2022/07/14 03:49:20;;;;;;;366.80;195.27;;;;;;;;;;5009234;28;20224;-52
2022/07/14 03:51:46;;;;;;;428.70;216.03;;;;;;;;;;5001505;28;20212;-52
2022/07/14 03:54:12;;;;;;;500.70;243.47;;;;;;;;;;5011416;28;20736;-52
2022/07/14 03:56:38;;;;;;;358.37;190.63;;;;;;;;;;5006995;28;20223;-51
2022/07/14 03:59:05;;;;;;;395.37;202.67;;;;;;;;;;5008622;28;20321;-51
2022/07/14 04:01:31;;;;;;;384.90;199.77;;;;;;;;;;5004700;28;20301;-51
2022/07/14 04:03:57;;;;;;;439.83;223.77;;;;;;;;;;5011466;28;20240;-51
2022/07/14 04:06:23;;;;;;;412.47;206.13;;;;;;;;;;5009581;28;20231;-51
2022/07/14 04:08:49;;;;;;;390.73;198.50;;;;;;;;;;5004149;28;20728;-51
2022/07/14 04:11:15;;;;;;;386.63;195.17;;;;;;;;;;5004844;28;20741;-51
2022/07/14 04:13:41;;;;;;;353.43;186.83;;;;;;;;;;5009980;28;20299;-51
2022/07/14 04:16:07;;;;;;;385.63;193.80;;;;;;;;;;5010463;28;20346;-51
2022/07/14 04:18:33;;;;;;;404.57;201.70;;;;;;;;;;5007725;28;20207;-52
2022/07/14 04:20:59;;;;;;;408.37;201.57;;;;;;;;;;5009179;28;20184;-52
2022/07/14 04:23:25;;;;;;;407.87;200.57;;;;;;;;;;5005697;28;20224;-52
2022/07/14 04:29:31;;;;;;;410.00;206.30;;;;;;;;;;5011358;27;20990;-52
2022/07/14 04:31:57;;;;;;;371.47;187.07;;;;;;;;;;4997574;28;20247;-51
2022/07/14 04:34:23;;;;;;;384.87;194.20;;;;;;;;;;4990185;28;20705;-51
2022/07/14 04:36:49;;;;;;;380.07;188.70;;;;;;;;;;4980890;28;20224;-52
2022/07/14 04:39:15;;;;;;;386.50;198.90;;;;;;;;;;4984276;28;20296;-51
2022/07/14 04:41:40;;;;;;;407.93;201.60;;;;;;;;;;4975754;28;20312;-52
2022/07/14 04:44:06;;;;;;;385.70;189.07;;;;;;;;;;4979938;28;20845;-52
2022/07/14 04:46:32;;;;;;;377.60;188.10;;;;;;;;;;4977014;28;20690;-52
2022/07/14 04:52:01;;;;;;;391.23;193.50;;;;;;;;;;4987578;28;20247;-51
2022/07/14 04:54:27;;;;;;;437.77;215.77;;;;;;;;;;4982037;28;20185;-51
2022/07/14 04:56:53;;;;;;;383.20;189.10;;;;;;;;;;4985826;28;20213;-51
2022/07/14 04:59:19;;;;;;;370.80;182.50;;;;;;;;;;4983256;28;20771;-51
2022/07/14 05:01:45;;;;;;;368.40;181.27;;;;;;;;;;4981056;28;20319;-51
2022/07/14 05:04:11;;;;;;;406.13;201.63;;;;;;;;;;4985592;28;20217;-51
2022/07/14 05:06:37;;;;;;;385.33;192.87;;;;;;;;;;4981522;28;20726;-51
2022/07/14 05:09:03;;;;;;;378.10;188.83;;;;;;;;;;4989701;28;20184;-51
2022/07/14 05:11:30;;;;;;;394.20;192.87;;;;;;;;;;4978107;28;20677;-52
2022/07/14 05:13:56;;;;;;;385.13;189.97;;;;;;;;;;4987855;28;20313;-52
2022/07/14 05:16:22;;;;;;;461.87;217.53;;;;;;;;;;4981007;28;20234;-52
2022/07/14 05:18:48;;;;;;;376.30;184.27;;;;;;;;;;4998898;28;20272;-51
2022/07/14 05:21:14;;;;;;;380.83;183.83;;;;;;;;;;4979823;28;20698;-51
2022/07/14 05:23:41;;;;;;;399.30;195.70;;;;;;;;;;4993617;28;20264;-51
2022/07/14 05:26:10;;;;;;;414.77;205.40;;;;;;;;;;4988513;28;20221;-51
2022/07/14 05:28:36;;;;;;;310.20;161.27;;;;;;;;;;4987148;28;20223;-51
2022/07/14 05:31:02;;;;;;;349.97;174.83;;;;;;;;;;4993363;28;20208;-51
2022/07/14 05:33:28;;;;;;;389.20;194.07;;;;;;;;;;4985048;28;20783;-53
2022/07/14 05:35:55;;;;;;;364.77;177.23;;;;;;;;;;4983900;28;20186;-52
2022/07/14 05:38:21;;;;;;;370.43;177.60;;;;;;;;;;4987745;28;20316;-53
2022/07/14 05:40:47;;;;;;;350.33;175.43;;;;;;;;;;4973598;28;20313;-53
2022/07/14 05:43:14;;;;;;;460.88;214.38;;;;;;;;;;4976434;28;20225;-53
2022/07/14 05:45:40;;;;;;;434.00;199.87;;;;;;;;;;4944763;28;20307;-53
2022/07/14 05:48:06;;;;;;;370.83;189.43;;;;;;;;;;4968244;28;20208;-53
2022/07/14 05:50:32;;;;;;;401.13;203.67;;;;;;;;;;4964276;28;20295;-53
2022/07/14 05:52:58;;;;;;;386.20;197.97;;;;;;;;;;4971811;28;20244;-52
2022/07/14 05:55:24;;;;;;;401.37;199.37;;;;;;;;;;4965488;28;20268;-53
2022/07/14 05:57:51;;;;;;;403.10;212.10;;;;;;;;;;4969683;28;20622;-53
2022/07/14 06:00:17;;;;;;;390.87;201.27;;;;;;;;;;4968535;28;20182;-53
2022/07/14 06:02:43;;;;;;;461.23;234.03;;;;;;;;;;4959978;28;20222;-53
2022/07/14 06:05:10;;;;;;;405.08;199.05;;;;;;;;;;4968085;28;20221;-52
2022/07/14 06:07:36;;;;;;;394.10;200.07;;;;;;;;;;4952504;28;20218;-52
2022/07/14 06:10:02;;;;;;;409.70;204.07;;;;;;;;;;4963009;28;20220;-53
2022/07/14 06:12:28;;;;;;;402.03;207.87;;;;;;;;;;4974738;28;20185;-52
2022/07/14 06:14:54;;;;;;;351.10;178.73;;;;;;;;;;4971076;28;20190;-52
2022/07/14 06:17:20;;;;;;;390.98;191.93;;;;;;;;;;4967560;28;20234;-52
2022/07/14 06:19:46;;;;;;;435.50;208.83;;;;;;;;;;4973097;28;20214;-51
2022/07/14 06:22:13;;;;;;;410.58;197.65;;;;;;;;;;4976443;28;20626;-51
2022/07/14 06:24:41;;;;;;;426.65;203.25;;;;;;;;;;4962637;28;20308;-51
2022/07/14 06:27:07;;;;;;;372.77;186.13;;;;;;;;;;4969065;28;20253;-51
2022/07/14 06:29:33;;;;;;;388.92;191.98;;;;;;;;;;4959269;28;20225;-51
2022/07/14 06:31:59;;;;;;;368.90;181.10;;;;;;;;;;4970318;28;20210;-51
2022/07/14 06:34:25;;;;;;;462.47;222.27;;;;;;;;;;4977826;28;20285;-53
2022/07/14 06:36:51;;;;;;;386.97;191.80;;;;;;;;;;4965185;28;20257;-53
2022/07/14 06:39:18;;;;;;;419.40;208.83;;;;;;;;;;4960305;28;20221;-53
2022/07/14 06:41:44;;;;;;;371.30;184.40;;;;;;;;;;4970965;28;20222;-53
2022/07/14 06:44:10;;;;;;;362.00;185.43;;;;;;;;;;4974514;28;20250;-53
2022/07/14 06:46:38;;;;;;;463.73;221.80;;;;;;;;;;4971332;28;20222;-53
2022/07/14 06:49:04;;;;;;;427.23;224.97;;;;;;;;;;4971107;28;20218;-53
2022/07/14 06:51:30;;;;;;;432.10;212.20;;;;;;;;;;4956179;28;20181;-53
2022/07/14 06:53:57;;;;;;;438.87;217.47;;;;;;;;;;4964216;28;20709;-53
2022/07/14 06:56:22;;;;;;;386.57;198.50;;;;;;;;;;4965856;28;20650;-51
2022/07/14 06:58:48;;;;;;;421.57;213.30;;;;;;;;;;4968181;28;20321;-51
2022/07/14 07:01:14;;;;;;;408.97;203.07;;;;;;;;;;4970877;28;20605;-50
2022/07/14 07:03:40;;;;;;;413.97;207.97;;;;;;;;;;4968516;28;20221;-50
2022/07/14 07:08:51;;;;;;;404.70;202.00;;;;;;;;;;4965144;28;20232;-50
2022/07/14 07:11:17;;;;;;;414.50;214.20;;;;;;;;;;4963117;28;20206;-50
2022/07/14 07:13:43;;;;;;;451.90;220.47;;;;;;;;;;4966189;28;20357;-51
2022/07/14 07:16:09;;;;;;;358.30;192.23;;;;;;;;;;4968218;28;20218;-50
2022/07/14 07:18:37;;;;;;;405.30;205.37;;;;;;;;;;4968053;28;20248;-51
2022/07/14 07:21:03;;;;;;;369.25;189.82;;;;;;;;;;4961066;28;21415;-50
2022/07/14 07:23:32;;;;;;;493.10;243.13;;;;;;;;;;4967457;28;20222;-50
2022/07/14 07:25:58;;;;;;;407.93;212.87;;;;;;;;;;4960931;28;20221;-50
2022/07/14 07:28:24;;;;;;;387.20;201.67;;;;;;;;;;4969839;28;20244;-50
2022/07/14 07:30:50;;;;;;;392.63;196.17;;;;;;;;;;4972363;28;20341;-50
2022/07/14 07:33:16;;;;;;;395.30;197.07;;;;;;;;;;4970073;28;20626;-52
2022/07/14 07:35:45;;;;;;;448.75;223.60;;;;;;;;;;4976427;28;20224;-53
2022/07/14 07:38:12;;;;;;;368.53;191.53;;;;;;;;;;4966736;28;20231;-52
2022/07/14 07:40:38;;;;;;;442.13;225.80;;;;;;;;;;4967249;28;20576;-53
2022/07/14 07:43:04;;;;;;;413.47;208.37;;;;;;;;;;4965289;28;20210;-53
2022/07/14 07:45:29;;;;;;;406.87;205.10;;;;;;;;;;4968222;28;20205;-52
2022/07/14 07:47:55;;;;;;;376.93;190.97;;;;;;;;;;4967327;28;20196;-52
2022/07/14 07:50:22;;;;;;;446.17;220.00;;;;;;;;;;4964022;28;20232;-53
2022/07/14 07:52:48;;;;;;;366.93;188.27;;;;;;;;;;4968103;28;20221;-53
2022/07/14 07:55:14;;;;;;;469.70;235.70;;;;;;;;;;4958890;28;20228;-52
2022/07/14 07:57:40;;;;;;;417.60;206.37;;;;;;;;;;4963269;28;20230;-52
2022/07/14 08:00:06;;;;;;;365.33;186.43;;;;;;;;;;4965058;28;20240;-53
2022/07/14 08:02:32;;;;;;;429.52;204.80;;;;;;;;;;4968380;28;20254;-53
2022/07/14 08:04:58;;;;;;;534.17;252.97;;;;;;;;;;4963743;28;20650;-53
2022/07/14 08:07:24;;;;;;;440.33;213.32;;;;;;;;;;4963556;28;20248;-53
2022/07/14 08:09:50;;;;;;;464.27;223.65;;;;;;;;;;4957808;28;20222;-53
2022/07/14 08:12:16;;;;;;;397.05;198.07;;;;;;;;;;4968142;28;20185;-52
2022/07/14 08:14:48;;;;;;;391.60;196.40;;;;;;;;;;4967020;28;20233;-53
2022/07/14 08:17:17;;;;;;;387.17;196.25;;;;;;;;;;4969019;28;20222;-53
2022/07/14 08:19:43;;;;;;;406.02;208.18;;;;;;;;;;4967511;28;20260;-52
2022/07/14 08:22:09;;;;;;;435.83;209.83;;;;;;;;;;4974015;28;20214;-52
2022/07/14 08:24:35;;;;;;;483.13;229.15;;;;;;;;;;4970561;28;20543;-52
2022/07/14 08:27:01;;;;;;;392.77;202.65;;;;;;;;;;4968454;28;20194;-52
2022/07/14 08:29:27;;;;;;;407.30;204.52;;;;;;;;;;4959835;28;20304;-52
2022/07/14 08:31:53;;;;;;;456.65;218.40;;;;;;;;;;4957722;28;20222;-52
2022/07/14 08:34:19;;;;;;;426.60;198.35;;;;;;;;;;4951300;28;20819;-53
2022/07/14 08:36:45;;;;;;;371.30;194.30;;;;;;;;;;4960938;28;20220;-52
2022/07/14 08:39:11;;;;;;;372.00;196.70;;;;;;;;;;4978260;28;20202;-52
2022/07/14 08:41:38;;;;;;;419.45;214.68;;;;;;;;;;4964182;28;20569;-53
2022/07/14 08:44:04;;;;;;;361.58;191.13;;;;;;;;;;4968726;28;20218;-52
2022/07/14 08:46:36;;;;;;;454.90;226.60;;;;;;;;;;4963306;28;20292;-52
2022/07/14 08:49:03;;;;;;;417.33;213.13;;;;;;;;;;4961093;28;20309;-52
2022/07/14 08:51:29;;;;;;;440.92;241.95;;;;;;;;;;4963878;28;20192;-52
2022/07/14 08:53:54;;;;;;;413.50;217.13;;;;;;;;;;4966461;28;20211;-53
2022/07/14 08:56:21;;;;;;;430.00;224.00;;;;;;;;;;4961217;28;20729;-53
2022/07/14 08:58:47;;;;;;;460.77;233.83;;;;;;;;;;4953796;28;20232;-52
2022/07/14 09:01:13;;;;;;;426.60;216.45;;;;;;;;;;4961244;28;20236;-53
2022/07/14 09:03:39;;;;;;;444.70;230.37;;;;;;;;;;4959299;28;21047;-53
2022/07/14 09:06:06;;;;;;;487.73;239.60;;;;;;;;;;4942933;28;20686;-52
2022/07/14 09:08:52;;;;;;;397.33;201.63;;;;;;;;;;4955350;28;20555;-53
2022/07/14 09:11:18;;;;;;;529.80;250.50;;;;;;;;;;4951193;28;20226;-53
2022/07/14 09:13:44;;;;;;;404.80;210.20;;;;;;;;;;4954205;28;20232;-53
2022/07/14 09:16:18;;;;;;;347.83;206.07;;;;;;;;;;4968389;28;20217;-50
2022/07/14 09:19:01;;;;;;;368.23;192.10;;;;;;;;;;5005025;28;20259;-50
2022/07/14 09:21:27;;;;;;;341.08;183.73;;;;;;;;;;4991601;28;20165;-50
2022/07/14 09:23:55;;;;;;;339.80;189.13;;;;;;;;;;4993347;28;20534;-50
2022/07/14 09:26:22;;;;;;;345.40;184.98;;;;;;;;;;4993383;28;20279;-50
2022/07/14 09:28:49;;;;;;;338.70;182.43;;;;;;;;;;4993166;28;20229;-49
2022/07/14 09:31:21;;;;;;;336.63;185.93;;;;;;;;;;4992996;28;25055;-50
2022/07/14 09:33:47;;;;;;;345.45;187.43;;;;;;;;;;4992526;28;20322;-50
2022/07/14 09:36:20;;;;;;;339.52;182.98;;;;;;;;;;4993875;28;20193;-49
2022/07/14 09:38:46;;;;;;;347.73;187.40;;;;;;;;;;4994317;28;20225;-50
2022/07/14 09:41:12;;;;;;;329.77;184.10;;;;;;;;;;4993928;28;20355;-49
2022/07/14 09:43:38;;;;;;;346.98;194.88;;;;;;;;;;4993425;28;20214;-49
2022/07/14 09:46:04;;;;;;;341.65;185.95;;;;;;;;;;4993439;28;20455;-50
2022/07/14 09:48:30;;;;;;;340.45;188.35;;;;;;;;;;4993394;28;20542;-49
2022/07/14 09:50:59;;;;;;;346.23;193.38;;;;;;;;;;4993882;28;20173;-49
2022/07/14 09:53:25;;;;;;;344.02;196.77;;;;;;;;;;4993291;28;20257;-50
2022/07/14 09:55:53;;;;;;;344.58;187.85;;;;;;;;;;4993093;28;20677;-50
2022/07/14 09:58:20;;;;;;;341.25;189.35;;;;;;;;;;4993051;28;20570;-50
2022/07/14 10:00:54;;;;;;;341.02;191.07;;;;;;;;;;4993393;28;20628;-49
2022/07/14 10:03:20;;;;;;;340.55;195.80;;;;;;;;;;4993808;28;20574;-50
2022/07/14 10:05:46;;;;;;;345.52;193.35;;;;;;;;;;4993949;28;20181;-49
2022/07/14 10:08:13;;;;;;;343.75;193.20;;;;;;;;;;4992995;28;20217;-49
2022/07/14 10:10:39;;;;;;;318.38;182.85;;;;;;;;;;4993208;28;20217;-48
2022/07/14 10:13:05;;;;;;;352.73;195.73;;;;;;;;;;4992712;28;20214;-49
2022/07/14 10:15:31;;;;;;;353.05;214.23;;;;;;;;;;4993189;28;20469;-49
2022/07/14 10:17:57;;;;;;;326.55;190.23;;;;;;;;;;4993441;28;20673;-49
2022/07/14 10:20:23;;;;;;;347.92;194.40;;;;;;;;;;4993238;28;20272;-49
2022/07/14 10:22:49;;;;;;;345.83;200.52;;;;;;;;;;4992804;28;20210;-49
2022/07/14 10:25:15;;;;;;;376.55;219.70;;;;;;;;;;4989976;28;20287;-50
2022/07/14 10:27:42;;;;;;;336.58;192.70;;;;;;;;;;4992786;28;20222;-49
2022/07/14 10:30:09;;;;;;;354.20;202.07;;;;;;;;;;4993227;28;20630;-49
2022/07/14 10:32:38;;;;;;;347.73;210.10;;;;;;;;;;4993006;28;20213;-49
2022/07/14 10:35:21;;;;;;;353.55;201.70;;;;;;;;;;4992760;28;20232;-50
2022/07/14 10:38:05;;;;;;;367.85;217.90;;;;;;;;;;4992321;28;20225;-49
2022/07/14 10:40:34;;;;;;;368.42;210.23;;;;;;;;;;4991689;28;20218;-49
2022/07/14 10:43:00;;;;;;;403.75;225.85;;;;;;;;;;4990480;28;20223;-48
2022/07/14 10:45:26;;;;;;;383.27;226.02;;;;;;;;;;4989034;28;20542;-49
2022/07/14 10:47:53;;;;;;;372.70;221.43;;;;;;;;;;4990205;28;20562;-49
2022/07/14 10:50:24;;;;;;;389.20;233.43;;;;;;;;;;5003816;28;20312;-49
2022/07/14 10:52:56;;;;;;;358.77;220.85;;;;;;;;;;4990712;28;20228;-49
2022/07/14 10:55:30;;;;;;;360.08;219.65;;;;;;;;;;4993506;28;20229;-50
2022/07/14 10:57:59;;;;;;;369.77;219.95;;;;;;;;;;4983338;28;20280;-49
2022/07/14 11:00:55;;;;;;;357.25;222.52;;;;;;;;;;4996156;28;20185;-49
2022/07/14 11:03:21;;;;;;;358.65;218.35;;;;;;;;;;4981530;28;20647;-50
2022/07/14 11:06:11;;;;;;;356.27;224.40;;;;;;;;;;4988743;28;20185;-50
2022/07/14 11:08:44;;;;;;;343.55;211.02;;;;;;;;;;4988279;28;20221;-50
2022/07/14 11:11:17;;;;;;;368.70;219.27;;;;;;;;;;4989114;28;20729;-49
2022/07/14 11:14:01;;;;;;;360.63;222.55;;;;;;;;;;4993069;28;20252;-50
2022/07/14 11:16:46;;;;;;;344.73;215.00;;;;;;;;;;4990292;28;20205;-49
2022/07/14 11:19:31;;;;;;;330.08;209.10;;;;;;;;;;4992135;28;20239;-50
2022/07/14 11:22:14;;;;;;;345.75;212.77;;;;;;;;;;4991203;28;20610;-48
2022/07/14 11:24:46;;;;;;;355.63;218.45;;;;;;;;;;4985522;28;20669;-49
2022/07/14 11:27:30;;;;;;;369.77;232.95;;;;;;;;;;4988733;28;20201;-50
2022/07/14 11:29:57;;;;;;;355.25;228.40;;;;;;;;;;4991934;28;20336;-50
2022/07/14 11:32:33;;;;;;;350.17;223.85;;;;;;;;;;4992098;28;20217;-50
2022/07/14 11:38:19;;;;;;;346.15;219.25;;;;;;;;;;4990950;28;20760;-50
2022/07/14 11:40:50;;;;;;;344.92;221.23;;;;;;;;;;4991314;28;20300;-50
2022/07/14 11:43:31;;;;;;;338.48;220.88;;;;;;;;;;4991110;28;20205;-50
2022/07/14 11:45:58;;;;;;;351.42;224.50;;;;;;;;;;4991374;28;20213;-50
2022/07/14 11:48:31;;;;;;;345.05;225.27;;;;;;;;;;4991312;28;20182;-50
2022/07/14 11:51:14;;;;;;;353.95;228.93;;;;;;;;;;4991784;28;20200;-50
2022/07/14 11:53:40;;;;;;;344.48;226.88;;;;;;;;;;4991397;28;20221;-50
2022/07/14 11:56:07;;;;;;;351.48;237.68;;;;;;;;;;4991464;28;21844;-50
2022/07/14 11:58:35;;;;;;;340.20;232.45;;;;;;;;;;4991327;28;20713;-51
2022/07/14 12:01:01;;;;;;;357.02;238.98;;;;;;;;;;4991188;28;20209;-50
2022/07/14 12:03:27;;;;;;;358.08;240.13;;;;;;;;;;4991156;28;20178;-50
2022/07/14 12:05:54;;;;;;;354.17;239.73;;;;;;;;;;4991532;28;20201;-51
2022/07/14 12:08:22;;;;;;;368.20;253.30;;;;;;;;;;4989110;28;20217;-50
2022/07/14 12:10:49;;;;;;;374.20;255.85;;;;;;;;;;4989111;28;20217;-51
2022/07/14 12:13:15;;;;;;;341.52;237.80;;;;;;;;;;4990608;28;20267;-51
2022/07/14 12:15:41;;;;;;;352.33;246.88;;;;;;;;;;4990504;28;20764;-51
2022/07/14 12:18:09;;;;;;;342.40;238.68;;;;;;;;;;4991151;28;20202;-51
2022/07/14 12:20:42;;;;;;;360.17;241.82;;;;;;;;;;4991188;28;20221;-50
2022/07/14 12:23:09;;;;;;;348.80;241.00;;;;;;;;;;4989677;28;20296;-50
2022/07/14 12:25:36;;;;;;;354.67;243.77;;;;;;;;;;4988078;28;20225;-50
2022/07/14 12:28:03;;;;;;;404.67;269.13;;;;;;;;;;4989367;28;20240;-49
2022/07/14 12:30:43;;;;;;;365.95;249.13;;;;;;;;;;4989413;28;20607;-50
2022/07/14 12:33:09;;;;;;;352.33;244.45;;;;;;;;;;4991448;28;20260;-50
2022/07/14 12:35:36;;;;;;;343.95;240.00;;;;;;;;;;4990891;28;20221;-50
2022/07/14 12:38:02;;;;;;;357.02;245.70;;;;;;;;;;4990563;28;20221;-50
2022/07/14 12:40:28;;;;;;;356.17;248.32;;;;;;;;;;4989687;28;20213;-50
2022/07/14 12:42:54;;;;;;;354.10;244.70;;;;;;;;;;4988573;28;20213;-50
2022/07/14 12:45:20;;;;;;;358.15;251.70;;;;;;;;;;4990550;28;20181;-50
2022/07/14 12:47:50;;;;;;;347.42;249.23;;;;;;;;;;4989003;28;20559;-51
2022/07/14 12:50:20;;;;;;;348.60;249.38;;;;;;;;;;4992889;28;20228;-51
2022/07/14 12:52:50;;;;;;;363.20;262.13;;;;;;;;;;4994403;28;20225;-51
2022/07/14 12:55:32;;;;;;;352.30;250.43;;;;;;;;;;4994856;28;20300;-50
2022/07/14 12:58:05;;;;;;;361.08;260.45;;;;;;;;;;4992921;28;20225;-50
2022/07/14 13:00:32;;;;;;;339.73;252.57;;;;;;;;;;4993102;28;20180;-50
2022/07/14 13:03:17;;;;;;;357.52;261.17;;;;;;;;;;4994351;28;20228;-51
2022/07/14 13:05:47;;;;;;;373.58;267.35;;;;;;;;;;4993393;28;20232;-51
2022/07/14 13:08:29;;;;;;;351.17;254.93;;;;;;;;;;4994040;28;20209;-51
2022/07/14 13:10:55;;;;;;;349.25;256.00;;;;;;;;;;4994221;28;20280;-50
2022/07/14 13:13:33;;;;;;;388.45;276.10;;;;;;;;;;4990979;28;20308;-51
2022/07/14 13:16:15;;;;;;;355.65;264.90;;;;;;;;;;4992894;28;20213;-50
2022/07/14 13:19:00;;;;;;;351.30;261.55;;;;;;;;;;4994639;28;20304;-51
2022/07/14 13:21:45;;;;;;;355.52;267.30;;;;;;;;;;4993184;28;20184;-50
2022/07/14 13:24:12;;;;;;;350.92;269.42;;;;;;;;;;4992482;28;20177;-51
2022/07/14 13:26:38;;;;;;;358.38;273.15;;;;;;;;;;4993725;28;20231;-50
2022/07/14 13:29:03;;;;;;;340.17;269.52;;;;;;;;;;4993617;28;20307;-51
2022/07/14 13:31:29;;;;;;;355.60;275.95;;;;;;;;;;4993995;28;20271;-50
2022/07/14 13:33:58;;;;;;;394.48;292.88;;;;;;;;;;4991908;28;20296;-50
2022/07/14 13:36:24;;;;;;;367.38;292.75;;;;;;;;;;4989414;28;20506;-50
2022/07/14 13:38:51;;;;;;;374.58;293.15;;;;;;;;;;4983269;28;20318;-49
2022/07/14 13:41:17;;;;;;;339.08;275.50;;;;;;;;;;4984078;28;20210;-49
2022/07/14 13:43:44;;;;;;;361.92;286.10;;;;;;;;;;4981955;28;20230;-49
2022/07/14 13:46:11;;;;;;;350.20;278.45;;;;;;;;;;4991666;28;20244;-50
2022/07/14 13:48:37;;;;;;;356.33;281.00;;;;;;;;;;4992399;28;20184;-49
2022/07/14 13:53:48;;;;;;;367.40;290.75;;;;;;;;;;4991144;28;20208;-48
2022/07/14 13:56:14;;;;;;;362.25;275.95;;;;;;;;;;4985489;28;20214;-50
2022/07/14 13:58:41;;;;;;;372.98;281.08;;;;;;;;;;4986728;28;20309;-50
2022/07/14 14:01:07;;;;;;;385.60;289.20;;;;;;;;;;4987355;28;20229;-48
2022/07/14 14:03:33;;;;;;;403.52;308.85;;;;;;;;;;4995981;28;20207;-50
2022/07/14 14:06:04;;;;;;;466.13;339.75;;;;;;;;;;4965112;28;20182;-50
2022/07/14 14:08:31;;;;;;;407.55;320.63;;;;;;;;;;4968956;28;20793;-50
2022/07/14 14:10:58;;;;;;;389.40;320.23;;;;;;;;;;4966183;28;20310;-50
2022/07/14 14:13:24;;;;;;;445.83;349.23;;;;;;;;;;4971505;28;20704;-50